Latest Weather Observations for Green Cape

IDN60801

Issued at 9:22 pm EST Wednesday 19 September 2018 (issued every 10 minutes, with the page automatically refreshed every 10 minutes)

About weather observations | Map of weather stations | Latest weather observations for NSW | Other Formats
Station Details ID: 069137 Name: GREEN CAPE AWS Lat: -37.26 Lon: 150.05 Height: 19.4 m
Data from the previous 72 hours. | See also: Recent months at Green Cape
Date/Time
EST
Temp
°C
App
Temp
°C
Dew
Point
°C
Rel
Hum
%
Delta-T
°C
Wind Press
QNH
hPa
Press
MSL
hPa
Rain since
9am
mm
Dir  Spd
km/h
Gust
km/h
Spd
kts
Gust
kts
19/09:00pm 11.0 2.2 5.5 69 2.5 SW 41 46 22 25 1014.8 1014.8 0.0
19/08:30pm 11.2 2.7 5.1 66 2.8 SW 39 46 21 25 1014.8 1014.8 0.0
19/08:00pm 11.4 2.9 5.3 66 2.8 SW 39 50 21 27 1014.2 1014.2 0.0
19/07:30pm 11.5 2.1 5.2 65 2.9 SW 44 57 24 31 1013.6 1013.6 0.0
19/07:00pm 11.8 1.9 5.0 63 3.1 SW 46 59 25 32 1013.3 1013.3 0.0
19/06:30pm 12.1 3.3 5.5 64 3.1 SW 41 50 22 27 1012.6 1012.6 0.0
19/06:00pm 12.4 4.4 5.6 63 3.2 SW 37 46 20 25 1012.1 1012.1 0.0
19/05:30pm 12.7 3.4 5.8 63 3.2 SW 44 61 24 33 1011.3 1011.3 0.0
19/05:00pm 13.0 1.8 5.7 61 3.4 SW 54 63 29 34 1010.5 1010.5 0.0
19/04:30pm 13.4 2.2 6.0 61 3.5 SW 54 65 29 35 1010.1 1010.1 0.0
19/04:00pm 13.4 2.0 6.5 63 3.3 SW 56 65 30 35 1009.4 1009.4 0.0
19/03:30pm 14.0 3.8 6.8 62 3.5 SW 50 59 27 32 1009.3 1009.3 0.0
19/03:00pm 13.5 4.1 7.1 65 3.1 SSW 46 56 25 30 1009.0 1009.0 0.0
19/02:30pm 13.9 5.6 7.9 67 3.0 S 41 48 22 26 1008.6 1008.6 0.0
19/02:23pm 13.6 5.1 8.4 71 2.6 S 43 50 23 27 1008.5 1008.5 0.0
19/02:00pm 13.4 4.7 7.8 69 2.8 SW 43 56 23 30 1008.4 1008.4 0.0
19/01:30pm 13.4 3.9 8.5 72 2.5 SSW 48 57 26 31 1008.3 1008.3 0.0
19/01:00pm 13.1 3.4 7.5 69 2.7 SW 48 54 26 29 1008.4 1008.4 0.0
19/12:30pm 12.5 3.2 7.4 71 2.5 SW 46 54 25 29 1008.6 1008.6 0.0
19/12:00pm 12.3 2.1 8.4 77 1.9 SSW 52 59 28 32 1008.1 1008.1 0.0
19/11:30am 13.2 3.9 9.3 77 2.0 S 48 54 26 29 1008.1 1008.1 0.0
19/11:00am 14.6 6.4 9.6 72 2.6 S 43 48 23 26 1007.8 1007.8 0.0
19/10:30am 14.4 7.0 10.0 75 2.3 S 39 46 21 25 1008.1 1008.1 0.0
19/10:00am 14.0 6.3 10.0 77 2.1 S 41 48 22 26 1008.1 1008.1 0.0
19/09:30am 14.2 7.3 10.4 78 2.0 SSW 37 43 20 23 1008.4 1008.4 0.0
19/09:00am 14.6 9.5 10.6 77 2.1 SSW 28 32 15 17 1008.2 1008.2 0.0
19/08:30am 13.9 7.3 9.9 77 2.1 SSW 35 41 19 22 1008.4 1008.4 0.0
19/08:00am 13.6 7.5 10.6 82 1.6 SSW 33 39 18 21 1008.3 1008.3 0.0
19/07:30am 13.4 8.8 11.1 86 1.2 SSW 26 32 14 17 1007.9 1007.9 0.0
19/07:00am 13.2 10.8 11.4 89 1.0 SSW 15 20 8 11 1007.7 1007.7 0.0
19/06:30am 12.9 10.0 11.0 88 1.0 S 17 19 9 10 1007.6 1007.6 0.0
19/06:00am 13.0 10.1 10.9 87 1.1 S 17 20 9 11 1007.5 1007.5 0.0
19/05:30am 13.1 10.6 11.0 87 1.1 S 15 17 8 9 1007.7 1007.7 0.0
19/05:00am 13.3 10.7 10.8 85 1.3 S 15 19 8 10 1007.7 1007.7 0.0
19/04:30am 13.4 10.0 10.6 83 1.5 SSW 19 20 10 11 1007.8 1007.8 0.0
19/04:00am 13.6 9.6 10.6 82 1.6 SW 22 28 12 15 1008.2 1008.2 0.0
19/03:30am 13.9 8.0 10.5 80 1.8 SSW 32 39 17 21 1007.6 1007.6 0.0
19/03:00am 14.1 7.4 9.7 75 2.3 SSW 35 37 19 20 1007.4 1007.4 0.0
19/02:30am 12.9 8.8 8.0 72 2.4 SW 19 28 10 15 1007.8 1007.8 0.0
19/02:00am 12.7 10.4 7.6 71 2.5 W 9 13 5 7 1007.2 1007.2 0.0
19/01:30am 13.3 12.0 10.1 81 1.7 N 7 13 4 7 1007.7 1007.7 0.0
19/01:00am 12.7 12.6 9.5 81 1.6 CALM 0 0 0 0 1008.0 1008.0 0.0
19/12:30am 13.5 11.3 10.7 83 1.5 N 13 19 7 10 1008.2 1008.2 0.0
19/12:00am 13.3 10.0 11.0 86 1.2 N 19 20 10 11 1008.4 1008.4 0.0
 
Date/Time
EST
Temp
°C
App
Temp
°C
Dew
Point
°C
Rel
Hum
%
Delta-T
°C
Wind Press
QNH
hPa
Press
MSL
hPa
Rain since
9am
mm
Dir  Spd
km/h
Gust
km/h
Spd
kts
Gust
kts
18/11:30pm 13.5 12.3 11.6 88 1.0 NNE 9 17 5 9 1008.7 1008.7 0.0
18/11:00pm 12.9 11.4 10.4 85 1.3 W 9 13 5 7 1008.9 1008.9 0.0
18/10:30pm 13.5 12.6 10.7 83 1.5 NW 6 9 3 5 1009.6 1009.6 0.0
18/10:00pm 13.6 13.8 11.8 89 1.0 NNW 2 11 1 6 1009.6 1009.6 0.0
18/09:30pm 13.7 13.3 11.2 85 1.3 NNE 4 6 2 3 1009.7 1009.7 0.0
18/09:00pm 13.7 12.9 11.0 84 1.4 WSW 6 9 3 5 1010.0 1010.0 0.0
18/08:30pm 14.4 13.7 12.1 86 1.2 NNW 7 13 4 7 1009.9 1009.9 0.0
18/08:00pm 14.6 12.5 12.5 87 1.1 NNW 15 28 8 15 1009.7 1009.7 0.0
18/07:30pm 14.7 10.1 12.2 85 1.4 N 28 32 15 17 1009.2 1009.2 0.0
18/07:00pm 14.7 10.1 12.2 85 1.4 N 28 35 15 19 1009.2 1009.2 0.0
18/06:30pm 15.0 9.6 12.1 83 1.6 N 32 39 17 21 1008.9 1008.9 0.0
18/06:00pm 14.7 11.1 12.0 84 1.5 N 22 28 12 15 1008.6 1008.6 0.0
18/05:30pm 15.2 13.8 12.2 82 1.6 NNE 11 17 6 9 1008.9 1008.9 0.0
18/05:00pm 15.4 11.2 12.5 83 1.6 N 26 30 14 16 1008.7 1008.7 0.0
18/04:30pm 15.6 11.7 12.2 80 1.9 N 24 28 13 15 1008.5 1008.5 0.0
18/04:00pm 16.2 10.7 12.0 76 2.3 N 32 37 17 20 1008.4 1008.4 0.0
18/03:30pm 16.4 12.3 11.6 73 2.6 N 24 28 13 15 1008.8 1008.8 0.0
18/03:00pm 17.0 12.5 11.5 70 3.0 N 26 32 14 17 1009.3 1009.3 0.0
18/02:30pm 18.0 14.3 11.6 66 3.5 N 22 26 12 14 1009.8 1009.8 0.0
18/02:00pm 17.9 14.4 12.1 69 3.2 NNE 22 30 12 16 1010.0 1010.0 0.0
18/01:30pm 17.1 13.6 12.2 73 2.7 NNE 22 28 12 15 1010.5 1010.5 0.0
18/01:00pm 16.7 12.6 11.6 72 2.8 N 24 28 13 15 1011.4 1011.4 0.0
18/12:30pm 16.5 13.1 12.5 77 2.2 N 22 28 12 15 1012.0 1012.0 0.0
18/12:00pm 15.9 12.3 11.9 77 2.2 N 22 26 12 14 1012.4 1012.4 0.0
18/11:30am 15.6 11.9 11.4 76 2.3 N 22 26 12 14 1013.1 1013.1 0.0
18/11:00am 15.5 11.8 10.1 70 2.8 N 20 24 11 13 1013.8 1013.8 0.0
18/10:30am 16.0 12.2 9.7 66 3.3 N 20 24 11 13 1014.2 1014.2 0.0
18/10:00am 15.2 11.4 8.9 66 3.2 N 19 20 10 11 1014.9 1014.9 0.0
18/09:30am 15.2 11.6 8.2 63 3.5 N 17 20 9 11 1015.3 1015.3 0.0
18/09:00am 14.8 10.8 8.1 64 3.4 N 19 22 10 12 1015.6 1015.6 0.0
18/08:30am 13.8 11.0 7.1 64 3.3 N 11 15 6 8 1016.0 1016.0 0.0
18/08:00am 13.3 10.8 8.4 72 2.4 N 11 13 6 7 1016.1 1016.1 0.0
18/07:30am 10.8 8.8 6.9 77 1.8 WNW 7 13 4 7 1016.1 1016.1 0.0
18/07:00am 10.5 8.4 6.8 78 1.7 NNW 7 9 4 5 1016.0 1016.0 0.0
18/06:30am 9.3 7.4 6.9 85 1.1 WNW 6 9 3 5 1015.8 1015.8 0.0
18/06:00am 9.6 7.8 7.0 84 1.2 W 6 9 3 5 1015.9 1015.9 0.0
18/05:30am 9.4 8.2 6.5 82 1.3 NNW 2 4 1 2 1015.7 1015.7 0.0
18/05:00am 10.1 9.1 7.2 82 1.4 ESE 2 6 1 3 1015.7 1015.7 0.0
18/04:30am 10.0 7.6 6.9 81 1.5 N 9 9 5 5 1015.2 1015.2 0.0
18/04:00am 10.3 8.4 6.6 78 1.7 NNW 6 9 3 5 1015.1 1015.1 0.0
18/03:30am 10.2 8.2 7.3 82 1.4 WNW 7 15 4 8 1015.0 1015.0 0.0
18/03:00am 10.3 8.4 7.7 84 1.2 N 7 9 4 5 1015.4 1015.4 0.0
18/02:30am 9.6 7.6 7.0 84 1.2 W 7 11 4 6 1015.8 1015.8 0.0
18/02:00am 10.5 8.2 7.6 82 1.4 W 9 13 5 7 1016.0 1016.0 0.0
18/01:30am 11.2 7.9 8.2 82 1.5 N 15 19 8 10 1016.3 1016.3 0.0
18/01:00am 11.2 8.8 8.6 84 1.3 N 11 13 6 7 1016.5 1016.5 0.0
18/12:30am 11.3 8.9 8.7 84 1.3 N 11 13 6 7 1016.5 1016.5 0.0
18/12:00am 11.6 9.0 9.2 85 1.2 N 13 17 7 9 1016.7 1016.7 0.0
 
Date/Time
EST
Temp
°C
App
Temp
°C
Dew
Point
°C
Rel
Hum
%
Delta-T
°C
Wind Press
QNH
hPa
Press
MSL
hPa
Rain since
9am
mm
Dir  Spd
km/h
Gust
km/h
Spd
kts
Gust
kts
17/11:30pm 12.6 8.1 10.1 85 1.3 N 24 26 13 14 1016.8 1016.8 0.0
17/11:00pm 12.8 8.8 10.3 85 1.3 N 22 26 12 14 1017.0 1017.0 0.0
17/10:30pm 13.0 7.9 10.7 86 1.2 N 28 33 15 18 1017.2 1017.2 0.0
17/10:00pm 13.4 7.7 11.3 87 1.1 N 32 37 17 20 1017.6 1017.6 0.0
17/09:30pm 13.6 7.0 11.3 86 1.2 NNE 37 44 20 24 1017.6 1017.6 0.0
17/09:00pm 13.7 6.6 11.0 84 1.4 NNE 39 48 21 26 1017.9 1017.9 0.0
17/08:30pm 13.7 6.2 10.9 83 1.5 NNE 41 48 22 26 1018.1 1018.1 0.0
17/08:00pm 13.7 5.8 10.7 82 1.6 NNE 43 50 23 27 1018.0 1018.0 0.0
17/07:30pm 13.7 6.5 10.7 82 1.6 NNE 39 46 21 25 1018.2 1018.2 0.0
17/07:00pm 13.8 6.2 10.4 80 1.8 NNE 41 46 22 25 1018.1 1018.1 0.0
17/06:30pm 13.6 6.6 10.0 79 1.9 NNE 37 43 20 23 1018.2 1018.2 0.0
17/06:00pm 13.7 6.7 9.9 78 2.0 NNE 37 43 20 23 1018.1 1018.1 0.0
17/05:30pm 13.8 7.1 9.8 77 2.1 NNE 35 41 19 22 1018.1 1018.1 0.0
17/05:00pm 14.2 8.6 10.0 76 2.2 NNE 30 37 16 20 1018.2 1018.2 0.0
17/04:30pm 14.4 8.4 10.0 75 2.3 NNE 32 37 17 20 1018.4 1018.4 0.0
17/04:00pm 14.6 8.3 9.8 73 2.5 NNE 33 39 18 21 1018.4 1018.4 0.0
17/03:30pm 14.7 8.6 9.7 72 2.6 NNE 32 37 17 20 1018.4 1018.4 0.0
17/03:00pm 14.8 8.1 9.6 71 2.7 NNE 35 41 19 22 1018.5 1018.5 0.0
17/02:30pm 14.9 8.2 9.5 70 2.8 NNE 35 41 19 22 1018.8 1018.8 0.0
17/02:00pm 15.2 8.7 9.1 67 3.1 NNE 33 37 18 20 1019.0 1019.0 0.0
17/01:30pm 15.3 9.8 9.0 66 3.2 NNE 28 33 15 18 1019.6 1019.6 0.0
17/01:00pm 15.2 9.5 8.2 63 3.5 NNE 28 32 15 17 1020.1 1020.1 0.0
17/12:30pm 15.1 9.4 8.3 64 3.4 NNE 28 32 15 17 1020.6 1020.6 0.0
17/12:00pm 15.1 10.1 8.1 63 3.5 NNE 24 28 13 15 1021.4 1021.4 0.0
17/11:30am 14.8 10.4 7.4 61 3.7 N 20 24 11 13 1022.1 1022.1 0.0
17/11:00am 14.6 10.3 6.9 60 3.7 NNE 19 22 10 12 1022.5 1022.5 0.0
17/10:30am 13.9 9.6 7.0 63 3.4 N 19 20 10 11 1022.8 1022.8 0.0
17/10:00am 13.9 9.5 6.5 61 3.5 N 19 20 10 11 1023.2 1023.2 0.0
17/09:30am 13.7 9.7 6.8 63 3.3 N 17 20 9 11 1023.3 1023.3 0.0
17/09:00am 13.0 10.5 6.6 65 3.0 N 9 13 5 7 1023.7 1023.7 0.0
17/08:30am 11.7 9.6 5.8 67 2.7 NNW 6 7 3 4 1023.7 1023.7 0.0
17/08:00am 9.5 6.8 5.5 76 1.8 W 9 11 5 6 1023.7 1023.7 0.0
17/07:30am 8.6 6.2 5.2 79 1.5 WNW 7 9 4 5 1023.6 1023.6 0.0
17/07:00am 7.9 5.6 5.0 82 1.3 WNW 6 7 3 4 1023.5 1023.5 0.0
17/06:30am 7.4 3.8 5.0 85 1.1 W 13 15 7 8 1023.5 1023.5 0.0
17/06:00am 7.1 3.3 4.1 81 1.3 W 13 15 7 8 1023.2 1023.2 0.0
17/05:30am 6.6 3.9 2.9 77 1.5 NW 6 9 3 5 1023.1 1023.1 0.0
17/05:00am 7.8 2.9 4.2 78 1.6 WNW 19 24 10 13 1022.8 1022.8 0.0
17/04:30am 7.5 2.4 3.9 78 1.5 W 20 24 11 13 1022.6 1022.6 0.0
17/04:00am 7.5 2.1 4.3 80 1.4 W 22 24 12 13 1022.5 1022.5 0.0
17/03:30am 7.5 2.4 4.1 79 1.5 W 20 24 11 13 1022.3 1022.3 0.0
17/03:00am 7.2 1.7 4.0 80 1.4 W 22 26 12 14 1022.4 1022.4 0.0
17/02:30am 7.0 1.9 4.3 83 1.2 W 20 22 11 12 1022.6 1022.6 0.0
17/02:00am 7.7 3.3 5.0 83 1.2 W 17 19 9 10 1022.8 1022.8 0.0
17/01:30am 8.1 4.5 5.0 81 1.4 W 13 19 7 10 1023.0 1023.0 0.0
17/01:00am 8.1 4.8 4.7 79 1.5 WNW 11 13 6 7 1023.1 1023.1 0.0
17/12:30am 8.3 4.6 4.7 78 1.6 WNW 13 15 7 8 1022.9 1022.9 0.0
17/12:00am 8.1 4.0 4.5 78 1.6 WNW 15 20 8 11 1022.8 1022.8 0.0
 
Date/Time
EST
Temp
°C
App
Temp
°C
Dew
Point
°C
Rel
Hum
%
Delta-T
°C
Wind Press
QNH
hPa
Press
MSL
hPa
Rain since
9am
mm
Dir  Spd
km/h
Gust
km/h
Spd
kts
Gust
kts
16/11:30pm 8.1 4.4 4.3 77 1.7 WNW 13 19 7 10 1022.9 1022.9 0.0
16/11:00pm 8.6 4.6 4.8 77 1.7 W 15 17 8 9 1023.0 1023.0 0.0
16/10:30pm 9.3 5.3 4.9 74 2.0 W 15 19 8 10 1023.0 1023.0 0.0
16/10:00pm 9.5 5.0 4.3 70 2.3 W 17 19 9 10 1023.0 1023.0 0.0
16/09:30pm 9.7 5.5 3.9 67 2.5 W 15 19 8 10 1023.0 1023.0 0.0

Other Formats:

Comma delimited format used in spreadsheet applications
http://www.bom.gov.au/fwo/IDN60801/IDN60801.94934.axf

JavaScript Object Notation format (JSON) in row-major order
http://www.bom.gov.au/fwo/IDN60801/IDN60801.94934.json